createdAt,value
2017-12-05T00:01:53.191Z,95.83
2017-12-05T00:04:22.772Z,96.10
2017-12-05T00:06:52.552Z,95.96
2017-12-05T00:09:22.303Z,95.92
2017-12-05T00:11:52.088Z,96.12
2017-12-05T00:14:21.813Z,96.21
2017-12-05T00:16:51.612Z,96.06
2017-12-05T00:19:21.387Z,95.17
2017-12-05T00:21:51.131Z,95.33
2017-12-05T00:24:20.913Z,95.64
2017-12-05T00:26:50.715Z,95.38
2017-12-05T00:29:20.453Z,95.11
2017-12-05T00:31:50.510Z,95.29
2017-12-05T00:34:20.257Z,95.16
2017-12-05T00:36:50.114Z,95.39
2017-12-05T00:39:19.851Z,95.44
2017-12-05T00:41:49.600Z,95.80
2017-12-05T00:44:19.343Z,95.46
2017-12-05T00:46:48.777Z,94.92
2017-12-05T00:49:18.534Z,94.79
2017-12-05T00:51:48.268Z,95.26
2017-12-05T00:54:18.041Z,95.25
2017-12-05T00:56:47.787Z,95.01
2017-12-05T00:59:17.524Z,95.01
2017-12-05T01:01:47.290Z,94.58
2017-12-05T01:04:17.040Z,94.94
2017-12-05T01:06:46.792Z,94.73
2017-12-05T01:09:16.575Z,94.67
2017-12-05T01:11:46.535Z,94.52
2017-12-05T01:14:16.278Z,94.90
2017-12-05T01:16:46.017Z,94.71
2017-12-05T01:19:15.819Z,94.59
2017-12-05T01:21:45.628Z,94.43
2017-12-05T01:24:15.399Z,94.49
2017-12-05T01:26:45.149Z,94.41
2017-12-05T01:29:14.878Z,93.83
2017-12-05T01:31:44.609Z,94.17
2017-12-05T01:34:14.345Z,94.12
2017-12-05T01:36:44.088Z,94.37
2017-12-05T05:22:04.809Z,99.16
2017-12-05T05:24:34.536Z,98.61
2017-12-05T05:27:04.093Z,99.33
2017-12-05T05:29:33.653Z,99.19
2017-12-05T05:32:03.428Z,98.96
2017-12-05T05:34:33.267Z,99.02
2017-12-05T05:37:03.022Z,99.33
2017-12-05T05:39:32.844Z,99.43
2017-12-05T05:42:02.582Z,99.41
2017-12-05T05:44:32.369Z,99.15
2017-12-05T05:47:13.944Z,99.33
2017-12-05T05:49:44.353Z,99.95
2017-12-05T05:52:14.170Z,100.00
2017-12-05T05:54:48.250Z,100.00
2017-12-05T05:57:19.721Z,100.00
2017-12-05T05:59:49.985Z,100.00
2017-12-05T06:02:20.340Z,99.67
2017-12-05T06:04:50.120Z,99.79
2017-12-05T06:07:20.080Z,99.60
2017-12-05T06:09:49.877Z,99.65
2017-12-05T06:12:19.710Z,99.67
2017-12-05T06:14:50.485Z,100.00
2017-12-05T06:17:20.482Z,100.00
2017-12-05T06:19:52.170Z,99.18
2017-12-05T06:22:22.339Z,100.00
2017-12-05T06:24:52.081Z,100.00
2017-12-05T06:27:22.122Z,100.00
2017-12-05T06:29:51.861Z,99.92
2017-12-05T06:32:21.616Z,99.71
2017-12-05T06:34:51.413Z,100.00
2017-12-05T06:37:21.205Z,100.00
2017-12-05T06:39:51.494Z,100.00
2017-12-05T06:42:21.376Z,100.00
2017-12-05T06:44:51.216Z,100.00
2017-12-05T06:47:20.817Z,100.00
2017-12-05T06:49:50.496Z,100.00
2017-12-05T06:52:19.955Z,100.00
2017-12-05T06:54:49.391Z,99.91
2017-12-05T06:57:18.825Z,100.00
2017-12-05T06:59:48.700Z,99.53
2017-12-05T07:02:18.950Z,99.76
2017-12-05T07:04:48.378Z,100.00
2017-12-05T07:07:22.091Z,99.87
2017-12-05T07:09:51.444Z,99.70
2017-12-05T07:12:20.873Z,99.75
2017-12-05T07:14:50.334Z,99.17
2017-12-05T07:17:20.108Z,99.82
2017-12-05T07:19:49.635Z,99.12
2017-12-05T07:22:18.866Z,99.52
2017-12-05T07:24:48.965Z,100.00
2017-12-05T07:27:18.480Z,99.05
2017-12-05T07:29:47.963Z,98.84
2017-12-05T07:32:17.777Z,99.46
2017-12-05T07:34:47.209Z,99.68
2017-12-05T07:37:17.850Z,99.79
2017-12-05T07:39:47.314Z,100.00
2017-12-05T07:42:17.385Z,99.53
2017-12-05T07:44:47.161Z,98.49
2017-12-05T07:47:16.660Z,98.93
2017-12-05T07:49:46.063Z,99.45
2017-12-05T07:52:15.504Z,100.00
2017-12-05T07:54:45.376Z,98.52
2017-12-05T07:57:15.105Z,99.97
2017-12-05T07:59:44.697Z,99.26
2017-12-05T08:02:14.321Z,98.36
2017-12-05T08:04:44.103Z,98.54
2017-12-05T08:07:13.693Z,99.25
2017-12-05T08:09:43.454Z,99.00
2017-12-05T08:12:12.750Z,98.81
2017-12-05T08:14:42.196Z,99.94
2017-12-05T08:17:11.626Z,99.65
2017-12-05T08:19:42.211Z,99.19
2017-12-05T08:22:11.639Z,98.93
2017-12-05T08:24:42.633Z,98.58
2017-12-05T08:27:12.429Z,98.49
2017-12-05T08:29:41.917Z,97.77
2017-12-05T08:32:11.338Z,97.91
2017-12-05T08:34:41.860Z,98.16
2017-12-05T08:37:11.600Z,97.50
2017-12-05T08:39:41.001Z,98.52
2017-12-05T08:42:10.408Z,97.50
2017-12-05T08:44:40.342Z,96.65
2017-12-05T08:47:09.799Z,98.02
2017-12-05T08:49:39.819Z,97.29
2017-12-05T08:52:09.255Z,97.44
2017-12-05T08:54:38.659Z,97.60
2017-12-05T08:57:08.226Z,97.50
2017-12-05T08:59:39.422Z,96.60
2017-12-05T09:02:08.928Z,97.52
2017-12-05T09:04:38.362Z,97.63
2017-12-05T09:07:07.858Z,97.78
2017-12-05T09:09:37.349Z,98.73
2017-12-05T09:12:06.676Z,98.03
2017-12-05T09:14:36.582Z,99.02
2017-12-05T09:17:06.044Z,98.48
2017-12-05T09:19:35.534Z,97.14
2017-12-05T09:22:04.931Z,97.49
2017-12-05T09:24:34.380Z,97.36
2017-12-05T09:27:04.179Z,98.57
2017-12-05T09:29:33.958Z,96.92
2017-12-05T09:32:03.361Z,97.89
2017-12-05T09:34:32.782Z,98.28
2017-12-05T09:37:02.618Z,98.28
2017-12-05T09:39:31.890Z,96.50
2017-12-05T09:42:01.397Z,96.41
2017-12-05T09:44:31.124Z,97.31
2017-12-05T09:47:00.576Z,94.24
2017-12-05T09:49:29.859Z,96.14
2017-12-05T09:51:59.128Z,96.02
2017-12-05T09:54:28.599Z,96.36
2017-12-05T09:56:58.101Z,94.97
2017-12-05T09:59:27.549Z,93.55
2017-12-05T10:01:57.305Z,95.67
2017-12-05T10:04:30.583Z,96.78
2017-12-05T10:07:00.321Z,96.53
2017-12-05T10:09:29.742Z,95.19
2017-12-05T10:11:59.186Z,94.76
2017-12-05T10:14:28.610Z,96.29
2017-12-05T10:16:58.053Z,96.98
2017-12-05T10:19:27.485Z,96.04
2017-12-05T10:21:56.898Z,94.91
2017-12-05T10:24:26.299Z,95.61
2017-12-05T10:26:55.786Z,94.56
2017-12-05T10:29:25.229Z,95.24
2017-12-05T10:31:54.715Z,95.45
2017-12-05T10:34:24.471Z,96.09
2017-12-05T10:36:53.722Z,96.84
2017-12-05T10:39:23.264Z,93.73
2017-12-05T10:41:52.691Z,94.04
2017-12-05T10:44:22.763Z,93.38
2017-12-05T10:46:52.696Z,94.03
2017-12-05T10:49:22.190Z,94.51
2017-12-05T10:51:51.569Z,93.95
2017-12-05T10:54:21.020Z,91.58
2017-12-05T10:56:50.445Z,93.11
2017-12-05T10:59:20.108Z,92.92
2017-12-05T11:01:49.854Z,92.57
2017-12-05T11:04:19.765Z,90.32
2017-12-05T11:06:49.406Z,90.51
2017-12-05T11:09:19.138Z,91.99
2017-12-05T11:11:48.722Z,91.62
2017-12-05T11:14:18.413Z,89.29
2017-12-05T11:16:48.162Z,89.40
2017-12-05T11:19:18.745Z,89.95
2017-12-05T11:21:48.404Z,91.22
2017-12-05T11:24:18.218Z,89.95
2017-12-05T11:26:47.823Z,89.56
2017-12-05T11:29:17.656Z,88.77
2017-12-05T11:31:47.075Z,88.62
2017-12-05T11:34:16.874Z,89.11
2017-12-05T11:36:46.843Z,89.47
2017-12-05T11:39:16.710Z,89.83
2017-12-05T11:41:46.490Z,89.44
2017-12-05T11:44:16.224Z,88.90
2017-12-05T11:46:45.996Z,89.45
2017-12-05T11:49:15.739Z,87.65
2017-12-05T11:51:45.520Z,87.30
2017-12-05T11:54:15.264Z,87.32
2017-12-05T11:56:45.388Z,85.90
2017-12-05T11:59:15.116Z,87.15
2017-12-05T12:01:44.848Z,86.01
2017-12-05T12:04:16.095Z,85.67
2017-12-05T12:06:45.985Z,85.94
2017-12-05T12:09:15.828Z,86.45
2017-12-05T12:11:45.600Z,85.98
2017-12-05T12:14:15.322Z,85.83
2017-12-05T12:16:45.173Z,87.34
2017-12-05T12:19:14.936Z,86.40
2017-12-05T12:21:44.725Z,86.18
2017-12-05T12:24:14.501Z,86.20
2017-12-05T12:26:44.294Z,86.75
2017-12-05T12:29:14.070Z,86.88
2017-12-05T12:31:43.904Z,86.95
2017-12-05T12:34:13.739Z,85.87
2017-12-05T12:36:43.518Z,85.40
2017-12-05T12:39:13.333Z,85.59
2017-12-05T12:41:42.776Z,85.80
2017-12-05T12:44:12.627Z,86.24
2017-12-05T12:46:42.434Z,85.33
2017-12-05T12:49:12.209Z,86.03
2017-12-05T12:51:41.978Z,85.17
2017-12-05T12:54:11.806Z,85.00
2017-12-05T12:56:41.599Z,85.13
2017-12-05T12:59:11.571Z,85.02
2017-12-05T13:01:42.291Z,83.89
2017-12-05T13:04:12.074Z,84.42
2017-12-05T13:06:41.944Z,84.79
2017-12-05T13:09:12.408Z,85.04
2017-12-05T13:11:42.202Z,85.18
2017-12-05T13:14:11.993Z,85.28
2017-12-05T13:16:41.767Z,85.60
2017-12-05T13:19:12.355Z,85.01
2017-12-05T13:21:42.081Z,85.29
2017-12-05T13:24:11.890Z,85.53
2017-12-05T13:26:41.703Z,86.08
2017-12-05T13:29:11.447Z,86.05
2017-12-05T13:31:41.225Z,86.35
2017-12-05T13:34:11.093Z,86.85
2017-12-05T13:36:41.003Z,87.07
2017-12-05T13:39:10.488Z,86.72
2017-12-05T13:41:40.287Z,86.81
2017-12-05T13:44:10.091Z,87.29
2017-12-05T13:46:39.833Z,87.31
2017-12-05T13:49:09.686Z,87.62
2017-12-05T13:51:39.549Z,87.46
2017-12-05T13:54:09.479Z,87.52
2017-12-05T13:56:39.259Z,88.04
2017-12-05T13:59:09.101Z,88.04
2017-12-05T14:01:38.847Z,87.07
2017-12-05T14:04:08.234Z,87.01
2017-12-05T14:06:38.013Z,86.83
2017-12-05T14:09:07.591Z,87.24
2017-12-05T14:11:37.309Z,87.32
2017-12-05T14:14:06.894Z,87.74
2017-12-05T14:16:36.676Z,87.21
2017-12-05T14:19:06.423Z,87.73
2017-12-05T14:21:36.496Z,87.60
2017-12-05T14:24:06.091Z,88.31
2017-12-05T14:26:35.518Z,89.23
2017-12-05T14:29:05.346Z,88.79
2017-12-05T14:31:35.149Z,88.67
2017-12-05T14:34:04.934Z,88.70
2017-12-05T14:36:34.427Z,89.45
2017-12-05T14:39:04.291Z,89.00
2017-12-05T14:41:34.036Z,88.68
2017-12-05T14:44:03.898Z,88.70
2017-12-05T14:46:33.760Z,88.82
2017-12-05T14:49:03.419Z,88.70
2017-12-05T14:51:33.244Z,88.59
2017-12-05T14:54:02.724Z,88.73
2017-12-05T14:56:32.150Z,88.66
2017-12-05T14:59:01.610Z,89.02
2017-12-05T15:01:31.463Z,88.92
2017-12-05T15:04:01.276Z,89.10
2017-12-05T15:06:31.040Z,88.48
2017-12-05T15:09:04.822Z,88.50
2017-12-05T15:11:34.657Z,87.91
2017-12-05T15:14:04.126Z,88.47
2017-12-05T15:16:33.947Z,88.92
2017-12-05T15:19:03.734Z,88.62
2017-12-05T15:21:33.184Z,89.49
2017-12-05T15:24:02.983Z,89.65
2017-12-05T15:26:33.106Z,89.94
2017-12-05T15:29:02.937Z,90.27
2017-12-05T15:31:32.712Z,90.20
2017-12-05T15:34:02.606Z,89.65
2017-12-05T15:36:32.405Z,90.09
2017-12-05T15:39:01.874Z,91.19
2017-12-05T15:41:31.880Z,90.19
2017-12-05T15:44:01.806Z,90.20
2017-12-05T15:46:31.405Z,91.22
2017-12-05T15:49:01.165Z,90.54
2017-12-05T15:51:30.910Z,88.99
2017-12-05T15:54:00.847Z,88.96
2017-12-05T15:56:30.377Z,88.96
2017-12-05T15:59:00.447Z,88.95
2017-12-05T16:01:30.656Z,88.71
2017-12-05T16:04:00.265Z,89.55
2017-12-05T16:06:31.097Z,90.28
2017-12-05T16:09:00.529Z,89.14
2017-12-05T16:11:30.367Z,88.90
2017-12-05T16:14:00.202Z,88.99
2017-12-05T16:16:33.942Z,89.12
2017-12-05T16:19:03.403Z,88.93
2017-12-05T16:21:32.938Z,89.06
2017-12-05T16:24:02.758Z,89.07
2017-12-05T16:26:32.519Z,89.21
2017-12-05T16:29:02.384Z,89.87
2017-12-05T16:31:32.784Z,90.16
2017-12-05T16:34:02.693Z,89.53
2017-12-05T16:36:32.590Z,89.31
2017-12-05T16:39:02.367Z,89.70
2017-12-05T16:49:18.352Z,90.82
2017-12-05T16:51:49.458Z,88.65
2017-12-05T16:54:19.520Z,88.27
2017-12-05T16:56:49.622Z,88.45
2017-12-05T16:59:20.099Z,87.77
2017-12-05T17:01:50.678Z,87.55
2017-12-05T17:04:20.550Z,87.87
2017-12-05T17:06:50.833Z,87.79
2017-12-05T17:09:20.951Z,87.79
2017-12-05T17:11:50.724Z,88.31
2017-12-05T17:14:21.924Z,87.91
2017-12-05T17:16:51.918Z,88.01
2017-12-05T17:19:21.817Z,88.06
2017-12-05T17:21:51.640Z,87.90
2017-12-05T17:24:21.552Z,88.18
2017-12-05T17:26:51.145Z,87.90
2017-12-05T17:29:20.946Z,88.64
2017-12-05T17:31:51.305Z,87.88
2017-12-05T17:34:20.952Z,88.22
2017-12-05T17:36:50.384Z,88.23
2017-12-05T17:39:20.209Z,88.34
2017-12-05T17:41:49.966Z,87.97
2017-12-05T17:44:19.813Z,87.71
2017-12-05T17:46:49.638Z,87.92
2017-12-05T17:49:19.496Z,87.98
2017-12-05T17:51:49.485Z,87.63
2017-12-05T17:54:19.395Z,87.54
2017-12-05T17:56:49.216Z,87.38
2017-12-05T17:59:19.071Z,87.79
2017-12-05T18:01:49.806Z,87.29
2017-12-05T18:04:19.232Z,87.75
2017-12-05T18:06:48.815Z,87.13
2017-12-05T18:09:18.485Z,87.09
2017-12-05T18:11:48.129Z,87.51
2017-12-05T18:14:18.490Z,87.24
2017-12-05T18:16:48.945Z,86.87
2017-12-05T18:19:18.670Z,86.90
2017-12-05T18:21:48.095Z,87.08
2017-12-05T18:24:17.577Z,86.54
2017-12-05T18:26:47.061Z,86.40
2017-12-05T18:29:16.474Z,86.16
2017-12-05T18:31:46.232Z,86.10
2017-12-05T18:34:15.692Z,86.30
2017-12-05T18:36:45.430Z,86.01
2017-12-05T18:39:14.840Z,85.68
2017-12-05T18:41:44.272Z,85.76
2017-12-05T18:44:13.711Z,85.17
2017-12-05T18:46:43.263Z,85.63
2017-12-05T18:49:13.137Z,85.22
2017-12-05T18:51:42.964Z,85.34
2017-12-05T18:54:12.780Z,85.05
2017-12-05T18:56:42.274Z,85.22
2017-12-05T18:59:11.731Z,85.34
2017-12-05T19:01:42.966Z,85.24
2017-12-05T19:04:12.598Z,85.23
2017-12-05T19:06:42.684Z,85.40
2017-12-05T19:09:16.783Z,85.21
2017-12-05T19:11:46.678Z,84.72
2017-12-05T19:14:16.253Z,84.87
2017-12-05T19:16:45.690Z,84.83
2017-12-05T19:19:15.166Z,84.63
2017-12-05T19:21:44.923Z,84.67
2017-12-05T19:24:14.974Z,84.54
2017-12-05T19:29:26.175Z,84.24
2017-12-05T19:31:55.726Z,83.80
2017-12-05T19:34:26.156Z,84.13
2017-12-05T19:36:56.166Z,84.03
2017-12-05T19:39:26.543Z,83.33
2017-12-05T19:41:55.994Z,83.29
2017-12-05T19:44:27.057Z,83.10
2017-12-05T19:46:56.719Z,82.64
2017-12-05T19:49:26.133Z,83.24
2017-12-05T19:51:55.686Z,83.20
2017-12-05T19:54:25.174Z,83.54
2017-12-05T19:57:08.020Z,83.21
2017-12-05T19:59:37.401Z,83.34
2017-12-05T20:02:07.378Z,82.62
2017-12-05T20:09:50.271Z,83.08
2017-12-05T20:12:20.153Z,82.87
2017-12-05T20:15:00.655Z,83.06
2017-12-05T20:17:32.774Z,82.69
2017-12-05T20:20:02.774Z,82.83
2017-12-05T20:22:32.082Z,82.87
2017-12-05T20:25:01.657Z,82.18
2017-12-05T20:27:31.160Z,82.84
2017-12-05T20:30:00.607Z,83.18
2017-12-05T20:32:31.399Z,83.01
2017-12-05T20:35:00.843Z,83.30
2017-12-05T20:37:30.441Z,82.85
2017-12-05T20:40:00.111Z,82.79
2017-12-05T20:42:29.443Z,82.84
2017-12-05T20:44:58.796Z,82.99
2017-12-05T20:47:28.265Z,82.64
2017-12-05T20:49:57.183Z,82.48
2017-12-05T20:52:26.250Z,82.74
2017-12-05T20:54:55.527Z,82.28
2017-12-05T20:57:24.775Z,82.59
2017-12-05T20:59:54.769Z,82.47
2017-12-05T21:02:24.056Z,82.32
2017-12-05T21:04:53.385Z,83.19
2017-12-05T21:07:22.728Z,82.70
2017-12-05T21:09:52.186Z,82.81
2017-12-05T21:12:21.576Z,82.77
2017-12-05T21:14:52.003Z,82.35
2017-12-05T21:17:21.590Z,82.72
2017-12-05T21:19:51.188Z,82.28
2017-12-05T21:22:20.504Z,81.48
2017-12-05T21:24:49.765Z,81.95
2017-12-05T21:27:19.112Z,81.75
2017-12-05T21:29:48.404Z,82.02
2017-12-05T21:32:17.709Z,81.53
2017-12-05T21:34:46.945Z,80.87
2017-12-05T21:37:16.195Z,81.48
2017-12-05T21:39:45.507Z,81.65
2017-12-05T21:42:14.792Z,81.55
2017-12-05T21:44:44.062Z,82.49
2017-12-05T21:47:13.567Z,82.20
2017-12-05T21:49:43.300Z,81.86
2017-12-05T21:52:12.682Z,81.66
2017-12-05T21:54:42.032Z,81.93
2017-12-05T22:02:32.321Z,81.32
2017-12-05T22:05:02.890Z,81.60
2017-12-05T22:07:33.030Z,81.22
2017-12-05T22:10:03.181Z,81.44
2017-12-05T22:12:33.576Z,81.56
2017-12-05T22:15:03.341Z,81.23
2017-12-05T22:17:33.090Z,81.62
2017-12-05T22:20:02.907Z,81.32
2017-12-05T22:22:42.595Z,80.94
2017-12-05T22:25:13.196Z,81.31
2017-12-05T22:27:43.742Z,81.66
2017-12-05T22:30:13.597Z,81.10
2017-12-05T22:32:43.449Z,81.21
2017-12-05T22:35:13.496Z,80.83
2017-12-05T22:37:43.584Z,81.52
2017-12-05T22:40:13.404Z,80.94
2017-12-05T22:42:43.245Z,80.89
2017-12-05T22:45:12.879Z,80.99
2017-12-05T22:47:42.629Z,80.93
2017-12-05T22:50:12.426Z,80.61
2017-12-05T22:52:42.248Z,81.13
2017-12-05T22:55:11.997Z,80.63
2017-12-05T22:57:41.775Z,80.81
2017-12-05T23:00:11.655Z,80.87
2017-12-05T23:02:41.481Z,80.30
2017-12-05T23:05:15.471Z,80.26
2017-12-05T23:07:45.245Z,79.90
2017-12-05T23:10:15.028Z,80.21
2017-12-05T23:12:44.996Z,79.63
2017-12-05T23:15:14.794Z,80.18
2017-12-05T23:17:44.672Z,79.29
2017-12-05T23:20:14.579Z,79.35
2017-12-05T23:22:44.470Z,79.30
2017-12-05T23:25:14.294Z,79.28
2017-12-05T23:27:44.041Z,79.15
2017-12-05T23:30:14.376Z,79.67
2017-12-05T23:32:44.566Z,78.83
2017-12-05T23:35:14.088Z,78.35
2017-12-05T23:37:43.895Z,78.94
2017-12-05T23:40:13.716Z,79.27
2017-12-05T23:42:43.954Z,78.95
2017-12-05T23:45:13.682Z,79.17
2017-12-05T23:47:43.458Z,79.45
2017-12-05T23:50:13.178Z,80.15
2017-12-05T23:52:42.973Z,79.13
2017-12-05T23:55:12.760Z,78.82
2017-12-05T23:57:42.529Z,79.58
